Time;durP1;ratioP1;P1;durP2;ratioP2;P2;SDS_P1;SDS_P2;PMS_P1;PMS_P2;Temp;Humidity;BMP_temperature;BMP_pressure;BME280_temperature;BME280_humidity;BME280_pressure;Samples;Min_cycle;Max_cycle;Signal;HPM_P1;HPM_P2
2023/02/02 16:45:53;;;;;;;8.30;4.78;;;7.70;99.90;;;;;;5102462;27;20120;-63
2023/02/02 16:48:44;;;;;;;11.63;5.88;;;7.70;99.90;;;;;;5102422;28;20047;-63
2023/02/02 16:51:16;;;;;;;10.02;6.43;;;7.80;99.90;;;;;;5100012;28;20035;-64
2023/02/02 16:53:45;;;;;;;10.38;6.07;;;7.90;99.90;;;;;;5107349;28;20099;-64
2023/02/02 16:56:27;;;;;;;12.23;6.50;;;8.00;99.90;;;;;;5106660;28;20027;-64
2023/02/02 16:58:56;;;;;;;10.65;6.00;;;8.00;99.90;;;;;;5107774;28;20046;-65
2023/02/02 17:01:33;;;;;;;10.68;6.40;;;8.10;99.90;;;;;;5126426;28;20024;-65
2023/02/02 17:03:59;;;;;;;13.98;7.55;;;8.10;99.90;;;;;;5128097;28;20028;-65
2023/02/02 17:06:28;;;;;;;11.95;6.85;;;8.10;99.90;;;;;;5128416;28;20543;-65
2023/02/02 17:08:54;;;;;;;13.02;7.75;;;8.20;99.90;;;;;;5128682;28;20065;-65
2023/02/02 17:11:24;;;;;;;14.20;8.02;;;8.20;99.90;;;;;;5111563;28;20051;-65
2023/02/02 17:13:50;;;;;;;16.95;9.10;;;8.20;99.90;;;;;;5107975;28;20383;-65
2023/02/02 17:16:22;;;;;;;21.52;9.63;;;8.20;99.90;;;;;;5107707;28;20039;-65
2023/02/02 17:18:49;;;;;;;19.17;9.48;;;8.20;99.90;;;;;;5108429;28;20016;-65
2023/02/02 17:21:19;;;;;;;16.80;9.52;;;8.20;99.90;;;;;;5125629;28;20499;-65
2023/02/02 17:23:45;;;;;;;17.23;9.35;;;8.30;99.90;;;;;;5111761;28;20036;-66
2023/02/02 17:26:11;;;;;;;19.58;10.07;;;8.20;99.90;;;;;;5106328;28;20823;-66
2023/02/02 17:28:40;;;;;;;21.42;10.98;;;8.30;99.90;;;;;;5108019;28;20126;-64
2023/02/02 17:31:12;;;;;;;24.42;11.52;;;8.30;99.90;;;;;;5107608;28;20020;-66
2023/02/02 17:33:38;;;;;;;23.92;12.05;;;8.30;99.90;;;;;;5107632;28;20077;-64
2023/02/02 17:36:05;;;;;;;23.35;12.65;;;8.30;99.90;;;;;;5107489;28;20111;-64
2023/02/02 17:38:31;;;;;;;23.90;12.40;;;8.30;99.90;;;;;;5120243;28;20023;-68
2023/02/02 17:41:01;;;;;;;22.83;13.40;;;8.20;99.90;;;;;;5106541;28;20058;-67
2023/02/02 17:43:29;;;;;;;29.80;14.37;;;8.30;99.90;;;;;;5107297;28;20023;-67
2023/02/02 17:45:54;;;;;;;30.60;14.88;;;8.30;99.90;;;;;;5106498;28;20051;-67
2023/02/02 17:48:20;;;;;;;34.38;15.95;;;8.30;99.90;;;;;;5108540;28;20028;-65
2023/02/02 17:50:46;;;;;;;26.83;15.00;;;8.30;99.90;;;;;;5126721;28;20023;-67
2023/02/02 17:53:14;;;;;;;31.33;14.40;;;8.30;99.90;;;;;;5125403;28;20499;-65
2023/02/02 17:55:41;;;;;;;29.98;15.15;;;8.30;99.90;;;;;;5107785;28;20023;-66
2023/02/02 17:58:09;;;;;;;30.48;15.95;;;8.30;99.90;;;;;;5093692;28;20028;-65
2023/02/02 18:00:36;;;;;;;31.38;15.95;;;8.30;99.90;;;;;;5093285;28;20445;-66
2023/02/02 18:03:22;;;;;;;29.05;15.73;;;8.30;99.90;;;;;;5093432;28;20024;-65
2023/02/02 18:05:48;;;;;;;35.80;17.52;;;8.30;99.90;;;;;;5092412;28;20032;-66
2023/02/02 18:08:14;;;;;;;34.10;16.67;;;8.30;99.90;;;;;;5094745;28;20031;-66
2023/02/02 18:10:41;;;;;;;34.25;17.83;;;8.30;99.90;;;;;;5093637;28;20028;-66
2023/02/02 18:13:06;;;;;;;35.92;17.58;;;8.30;99.90;;;;;;5092556;28;20030;-65
2023/02/02 18:15:33;;;;;;;29.08;15.77;;;8.30;99.90;;;;;;5093255;28;20016;-66
2023/02/02 18:18:00;;;;;;;31.50;17.52;;;8.30;99.90;;;;;;5104813;28;20016;-66
2023/02/02 18:20:26;;;;;;;42.72;18.15;;;8.30;99.90;;;;;;5093139;28;20051;-65
2023/02/02 18:22:52;;;;;;;34.22;16.60;;;8.30;99.90;;;;;;5093098;28;20081;-66
2023/02/02 18:25:18;;;;;;;33.53;16.90;;;8.30;99.90;;;;;;5091746;28;20031;-65
2023/02/02 18:27:44;;;;;;;34.35;16.88;;;8.30;99.90;;;;;;5089785;28;20043;-64
2023/02/02 18:30:10;;;;;;;37.45;17.75;;;8.30;99.90;;;;;;5089764;28;20052;-63
2023/02/02 18:32:38;;;;;;;27.77;15.73;;;8.30;99.90;;;;;;5084715;28;20047;-66
2023/02/02 18:35:05;;;;;;;30.88;15.45;;;8.30;99.90;;;;;;5077515;28;20031;-65
2023/02/02 18:37:30;;;;;;;34.90;15.65;;;8.30;99.90;;;;;;5093107;28;20032;-65
2023/02/02 18:39:56;;;;;;;26.00;15.10;;;8.30;99.90;;;;;;5091763;28;20058;-65
2023/02/02 18:42:22;;;;;;;29.45;14.93;;;8.30;99.90;;;;;;5091759;28;20019;-65
2023/02/02 18:44:48;;;;;;;30.83;14.02;;;8.30;99.90;;;;;;5091786;28;20571;-64
2023/02/02 18:47:13;;;;;;;22.17;13.02;;;8.30;99.90;;;;;;5091919;28;20058;-66
2023/02/02 18:49:39;;;;;;;33.30;12.80;;;8.30;99.90;;;;;;5091588;28;20028;-65
2023/02/02 18:52:05;;;;;;;26.05;12.50;;;8.20;99.90;;;;;;5092008;28;20053;-65
2023/02/02 18:54:32;;;;;;;22.05;12.90;;;8.20;99.90;;;;;;5092012;28;20465;-65
2023/02/02 18:56:58;;;;;;;24.25;12.35;;;8.20;99.90;;;;;;5091524;28;20019;-65
2023/02/02 18:59:23;;;;;;;23.83;12.70;;;8.20;99.90;;;;;;5090399;28;20028;-65
2023/02/02 19:01:49;;;;;;;23.85;11.90;;;8.20;99.90;;;;;;5092197;28;20024;-65
2023/02/02 19:04:15;;;;;;;29.08;13.10;;;8.20;99.90;;;;;;5104239;28;20035;-65
2023/02/02 19:09:25;;;;;;;27.23;12.57;;;8.30;99.90;;;;;;5091593;28;20201;-66
2023/02/02 19:11:53;;;;;;;29.17;13.57;;;8.20;99.90;;;;;;5091845;28;20065;-65
2023/02/02 19:14:32;;;;;;;30.38;14.07;;;8.30;99.90;;;;;;5092039;28;20022;-65
2023/02/02 19:17:13;;;;;;;26.45;13.25;;;8.30;99.90;;;;;;5090029;28;20024;-65
